Wrangell, AK

4:49 PM AKST on January 19, 2017 (GMT -0900)
Wrangell

Weather History for PAWG - November, 2011

Change the Weather History Date:

Tuesday, November 22, 2011

  Actual Average Record
Temperature  
Mean Temperature 34 °F -  
Max Temperature 39 °F 38 °F 55 °F (1949)
Min Temperature 28 °F 29 °F 10 °F (1963)
Degree Days  
Heating Degree Days 32    
Moisture  
Dew Point 27 °F    
Average Humidity 78    
Maximum Humidity 93    
Minimum Humidity 69    
Precipitation  
Precipitation 0.00 in - - ()
Sea Level Pressure  
Sea Level Pressure 28.96 in    
Wind  
Wind Speed 8 mph (ESE)    
Max Wind Speed 18 mph    
Max Gust Speed 28 mph    
Visibility 10 miles    
Events      
Averages and records for this station are not official NWS values.
T = Trace of Precipitation, MM = Missing Value Source: NWS Daily Summary

Daily Weather History Graph

Daily Weather History Graph

Search for Another Location

Airport or City:

Trip Planner

Search our weather history database for the weather conditions in past years. The results will help you decide how hot, cold, wet, or windy it might be!

Date:

Astronomy

Nov. 22, 2011 Rise Set
Actual Time 7:42 AM AKST 3:28 PM AKST
Civil Twilight 6:58 AM AKST 4:12 PM AKST
Nautical Twilight 6:10 AM AKST 4:59 PM AKST
Astronomical Twilight 5:25 AM AKST 5:44 PM AKST
Moon 4:18 AM AKST (11/22) 1:49 PM AKST (11/22)
Length of Visible Light 9h 14m
Length of Day
7h 45m
Waning Crescent, 8% of the Moon is Illuminated
Nov 22
Waning Crescent
Nov 24
New
Dec 2
First Quarter
Dec 10
Full
Dec 17
Last Quarter

Hourly Weather History & Observations

Time (AKST) Temp. Windchill Dew Point Humidity Pressure Visibility Wind Dir Wind Speed Gust Speed Precip Events Conditions
12:16 AM 28.4 °F 19.1 °F 24.8 °F 86% 28.91 in 10.0 mi West 10.4 mph - N/A   Clear
12:36 AM 28.4 °F 20.4 °F 23.0 °F 80% 28.91 in 10.0 mi West 8.1 mph - N/A   Clear
12:56 AM 30.2 °F 23.4 °F 23.0 °F 75% 28.91 in 10.0 mi NNW 6.9 mph - N/A   Clear
1:16 AM 30.2 °F 21.3 °F 24.8 °F 80% 28.90 in 10.0 mi NW 10.4 mph - N/A   Clear
1:36 AM 28.4 °F 19.7 °F 21.2 °F 74% 28.89 in 10.0 mi NW 9.2 mph - N/A   Clear
1:56 AM 28.4 °F 23.3 °F 21.2 °F 74% 28.88 in 10.0 mi West 4.6 mph - N/A   Clear
2:16 AM 30.2 °F 21.9 °F 23.0 °F 75% 28.87 in 10.0 mi NW 9.2 mph - N/A   Clear
2:36 AM 28.4 °F 22.2 °F 21.2 °F 74% 28.87 in 10.0 mi NW 5.8 mph - N/A   Clear
2:56 AM 28.4 °F 23.3 °F 23.0 °F 80% 28.86 in 10.0 mi NNW 4.6 mph - N/A   Partly Cloudy
3:16 AM 30.2 °F 21.9 °F 21.2 °F 69% 28.85 in 10.0 mi NW 9.2 mph - N/A   Clear
3:36 AM 28.4 °F 21.2 °F 21.2 °F 74% 28.85 in 10.0 mi NNW 6.9 mph - N/A   Partly Cloudy
3:56 AM 28.4 °F 24.6 °F 21.2 °F 74% 28.85 in 10.0 mi North 3.5 mph - N/A   Partly Cloudy
4:16 AM 28.4 °F 22.2 °F 21.2 °F 74% 28.84 in 10.0 mi NW 5.8 mph - N/A   Clear
4:36 AM 28.4 °F 20.4 °F 21.2 °F 74% 28.85 in 10.0 mi NNW 8.1 mph - N/A   Mostly Cloudy
4:56 AM 28.4 °F 23.3 °F 21.2 °F 74% 28.85 in 10.0 mi North 4.6 mph - N/A   Overcast
5:16 AM 28.4 °F 23.3 °F 21.2 °F 74% 28.85 in 10.0 mi NNW 4.6 mph - N/A   Overcast
5:36 AM 28.4 °F - 24.8 °F 86% 28.86 in 10.0 mi Calm Calm - N/A   Overcast
5:56 AM 28.4 °F 22.2 °F 23.0 °F 80% 28.87 in 10.0 mi WNW 5.8 mph - N/A   Overcast
6:16 AM 30.2 °F 23.4 °F 24.8 °F 80% 28.88 in 10.0 mi NNW 6.9 mph - N/A   Overcast
6:36 AM 30.2 °F 26.7 °F 24.8 °F 80% 28.88 in 10.0 mi North 3.5 mph - N/A   Overcast
6:56 AM 35.6 °F 28.0 °F 28.4 °F 75% 28.89 in 10.0 mi East 10.4 mph - N/A   Overcast
7:16 AM 35.6 °F 28.6 °F 28.4 °F 75% 28.89 in 10.0 mi East 9.2 mph - N/A   Overcast
7:36 AM 35.6 °F 28.0 °F 26.6 °F 70% 28.90 in 10.0 mi ESE 10.4 mph - N/A   Overcast
7:56 AM 35.6 °F 29.2 °F 26.6 °F 70% 28.91 in 10.0 mi East 8.1 mph - N/A   Overcast
8:16 AM 35.6 °F 28.6 °F 28.4 °F 75% 28.91 in 10.0 mi East 9.2 mph - N/A   Overcast
8:36 AM 35.6 °F 29.9 °F 28.4 °F 75% 28.92 in 10.0 mi East 6.9 mph - N/A   Overcast
8:56 AM 35.6 °F 28.6 °F 28.4 °F 75% 28.94 in 10.0 mi East 9.2 mph - N/A   Overcast
9:16 AM 35.6 °F 29.9 °F 28.4 °F 75% 28.95 in 10.0 mi ENE 6.9 mph - N/A   Overcast
9:36 AM 37.4 °F 29.8 °F 30.2 °F 75% 28.94 in 10.0 mi SSE 11.5 mph 17.3 mph N/A   Overcast
9:56 AM 35.6 °F 30.7 °F 30.2 °F 81% 28.96 in 10.0 mi SSE 5.8 mph - N/A   Overcast
10:16 AM 37.4 °F 28.5 °F 30.2 °F 75% 28.96 in 10.0 mi SE 15.0 mph - N/A   Overcast
10:36 AM 37.4 °F 27.5 °F 30.2 °F 75% 28.96 in 10.0 mi SE 18.4 mph 23.0 mph N/A   Overcast
10:56 AM 37.4 °F 28.2 °F 28.4 °F 70% 28.97 in 10.0 mi SE 16.1 mph 24.2 mph N/A   Overcast
11:16 AM 37.4 °F 28.2 °F 32.0 °F 81% 28.98 in 10.0 mi ESE 16.1 mph - N/A   Overcast
11:36 AM 37.4 °F 27.5 °F 30.2 °F 75% 28.98 in 10.0 mi SE 18.4 mph 23.0 mph N/A   Overcast
11:56 AM 37.4 °F 28.5 °F 32.0 °F 81% 28.99 in 10.0 mi SE 15.0 mph - N/A   Overcast
12:16 PM 37.4 °F 33.8 °F 30.2 °F 75% 29.01 in 10.0 mi SW 4.6 mph - N/A   Overcast
12:36 PM 37.4 °F 33.8 °F 32.0 °F 81% 29.02 in 10.0 mi SSW 4.6 mph 18.4 mph N/A   Overcast
12:56 PM 37.4 °F - 32.0 °F 81% 29.03 in 10.0 mi Calm Calm - N/A   Overcast
1:16 PM 37.4 °F 32.8 °F 33.8 °F 87% 29.02 in 10.0 mi ESE 5.8 mph - N/A   Overcast
1:36 PM 37.4 °F 29.3 °F 32.0 °F 81% 29.03 in 10.0 mi SSE 12.7 mph 16.1 mph N/A   Overcast
1:56 PM 37.4 °F 27.5 °F 30.2 °F 75% 29.02 in 10.0 mi SE 18.4 mph 24.2 mph N/A   Overcast
2:16 PM 37.4 °F 28.5 °F 32.0 °F 81% 29.04 in 10.0 mi SE 15.0 mph 27.6 mph N/A   Overcast
2:36 PM 39.2 °F 31.2 °F 32.0 °F 75% 29.04 in 10.0 mi SSE 13.8 mph 24.2 mph N/A   Overcast
2:56 PM 37.4 °F 33.8 °F 30.2 °F 75% 29.06 in 10.0 mi South 4.6 mph - N/A   Overcast
3:16 PM 37.4 °F 30.8 °F 32.0 °F 81% 29.06 in 10.0 mi ESE 9.2 mph - N/A   Overcast
3:36 PM 37.4 °F - 30.2 °F 75% 29.07 in 10.0 mi Calm Calm - N/A   Overcast
3:56 PM 35.6 °F 28.6 °F 30.2 °F 81% 29.07 in 10.0 mi SSE 9.2 mph - N/A   Overcast
4:16 PM 37.4 °F 31.4 °F 30.2 °F 75% 29.07 in 10.0 mi South 8.1 mph - N/A   Overcast
4:36 PM 37.4 °F 32.1 °F 30.2 °F 75% 29.09 in 10.0 mi SSW 6.9 mph - N/A   Overcast
4:56 PM 33.8 °F 27.7 °F 30.2 °F 87% 29.11 in 5.0 mi WSW 6.9 mph - N/A   Overcast
5:16 PM 32.0 °F 27.5 °F 30.2 °F 93% 29.11 in 5.0 mi ENE 4.6 mph - N/A   Overcast
5:36 PM 33.8 °F 27.0 °F 30.2 °F 87% 29.11 in 5.0 mi NE 8.1 mph - N/A   Overcast
5:56 PM 33.8 °F 27.0 °F 30.2 °F 87% 29.11 in 5.0 mi SE 8.1 mph - N/A   Overcast
6:16 PM 33.8 °F 27.7 °F 30.2 °F 87% 29.13 in 5.0 mi SSE 6.9 mph - N/A   Overcast
6:36 PM 33.8 °F 28.6 °F 30.2 °F 87% 29.13 in 5.0 mi SE 5.8 mph - N/A   Overcast
6:56 PM 35.6 °F 29.9 °F 30.2 °F 81% 29.14 in 7.0 mi ESE 6.9 mph - N/A   Overcast
7:16 PM 32.0 °F 28.7 °F 28.4 °F 87% 29.15 in 7.0 mi North 3.5 mph - N/A   Overcast
7:36 PM 32.0 °F - 30.2 °F 93% 29.15 in 7.0 mi Calm Calm - N/A   Overcast
7:56 PM 33.8 °F - 30.2 °F 87% 29.15 in 7.0 mi Calm Calm - N/A   Overcast
8:16 PM 33.8 °F 28.6 °F 28.4 °F 81% 29.15 in 10.0 mi SE 5.8 mph - N/A   Overcast
8:36 PM 33.8 °F 27.7 °F 30.2 °F 87% 29.15 in 10.0 mi ESE 6.9 mph - N/A   Overcast
8:56 PM 33.8 °F 25.3 °F 30.2 °F 87% 29.15 in 10.0 mi ESE 11.5 mph - N/A   Overcast
9:16 PM 33.8 °F 26.4 °F 30.2 °F 87% 29.15 in 10.0 mi ESE 9.2 mph - N/A   Overcast
9:36 PM 33.8 °F 26.4 °F 32.0 °F 93% 29.15 in 10.0 mi ESE 9.2 mph - N/A   Overcast
9:56 PM 33.8 °F 28.6 °F 30.2 °F 87% 29.16 in 10.0 mi SSE 5.8 mph - N/A   Overcast
10:16 PM 33.8 °F - 30.2 °F 87% 29.16 in 10.0 mi Calm Calm - N/A   Overcast
10:36 PM 33.8 °F 24.3 °F 30.2 °F 87% 29.15 in 10.0 mi SE 13.8 mph 17.3 mph N/A   Overcast
10:56 PM 35.6 °F 25.5 °F 30.2 °F 81% 29.14 in 10.0 mi SE 17.3 mph - N/A   Overcast
11:16 PM 35.6 °F 28.6 °F 28.4 °F 75% 29.15 in 10.0 mi SSE 9.2 mph 19.6 mph N/A   Overcast
11:36 PM 33.8 °F 27.7 °F 28.4 °F 81% 29.15 in 9.0 mi South 6.9 mph - N/A   Overcast
11:56 PM 33.8 °F 28.6 °F 28.4 °F 81% 29.16 in 7.0 mi NW 5.8 mph - N/A   Mostly Cloudy